Flight Track Log - Related Links

Times and Time Zones

All times are in EDT time to prevent confusion due to time zone crossing. See the SKW5550 flight status page for this flight to view local times or setup timezone preferences in your user account.

Time Position Orientation Groundspeed Altitude Reporting Facility
EDT Latitude Longitude Course Direction KTS MPH feet Rate Location/Type
Fri 09:11:07 AM 44.5094 -109.0528 159° South 150 173 6,300  Level Salt Lake Center
Fri 09:12:00 AM 44.4733 -108.8808 159° South  Level FlightAware Approximate
Fri 09:12:07 AM 44.4639 -109.0678 193° South 217 250 7,900  Level Salt Lake Center
Fri 09:13:00 AM 44.3631 -108.8143 154° Southeast  Level FlightAware Approximate
Fri 09:13:08 AM 44.4744 -108.9814 80° East 260 299 10,100  Level Salt Lake Center
Fri 09:14:00 AM 44.2544 -108.7430 158° South  Level FlightAware Approximate
Fri 09:14:09 AM 44.5506 -108.9664 North 269 310 12,100  Level Salt Lake Center
Fri 09:15:00 AM 44.1433 -108.6797 159° South  Level FlightAware Approximate
Fri 09:15:09 AM 44.6289 -108.9408 13° North 302 348 13,800  Level Salt Lake Center
Fri 09:16:00 AM 44.0316 -108.6187 159° South  Level FlightAware Approximate
Fri 09:16:09 AM 44.6217 -108.8256 95° East 317 365 15,300  Level Salt Lake Center
Fri 09:17:10 AM 44.5353 -108.8050 170° South 337 388 16,700 1,623 Climbing Salt Lake Center
Fri 09:18:11 AM 44.4275 -108.7919 175° South 348 400 18,600 1,587 Climbing Salt Lake Center
Fri 09:19:11 AM 44.3475 -108.7058 142° Southeast 358 412 19,900 992 Climbing Salt Lake Center
Fri 09:20:12 AM 44.2617 -108.6303 148° Southeast 363 418 20,600 541 Climbing Salt Lake Center
Fri 09:21:13 AM 44.1733 -108.5522 148° Southeast 372 428 21,000 590 Climbing Salt Lake Center
Fri 09:22:14 AM 44.0825 -108.4719 148° Southeast 383 441 21,800 793 Climbing Salt Lake Center
Fri 09:23:14 AM 43.9917 -108.3903 147° Southeast 389 448 22,600 843 Climbing Salt Lake Center
Fri 09:24:15 AM 43.9000 -108.3094 148° Southeast 392 451 23,500 836 Climbing Salt Lake Center
Fri 09:25:16 AM 43.8056 -108.2264 148° Southeast 401 461 24,300 793 Climbing Salt Lake Center
Fri 09:26:16 AM 43.7106 -108.1431 148° Southeast 405 466 25,100 843 Climbing Salt Lake Center
Fri 09:27:17 AM 43.6147 -108.0581 147° Southeast 411 473 26,000 836 Climbing Salt Lake Center
Fri 09:28:18 AM 43.5183 -107.9736 148° Southeast 412 474 26,800 787 Climbing Salt Lake Center
Fri 09:29:19 AM 43.4217 -107.8886 147° Southeast 414 476 27,600 787 Climbing Salt Lake Center
Fri 09:30:20 AM 43.3253 -107.8058 148° Southeast 412 474 28,400 694 Climbing Salt Lake Center
Fri 09:31:20 AM 43.2289 -107.7222 148° Southeast 411 473 29,000 595 Climbing Salt Lake Center
Fri 09:32:21 AM 43.1117 -107.6206 148° Southeast 416 479 29,600 541 Climbing Salt Lake Center
Fri 09:33:22 AM 43.0139 -107.5378 148° Southeast 415 478 30,100 492 Climbing Salt Lake Center
Fri 09:34:23 AM 42.9139 -107.4514 148° Southeast 422 486 30,600 443 Climbing Salt Lake Center
Fri 09:35:24 AM 42.8200 -107.3711 148° Southeast 419 482 31,000 197 Climbing Salt Lake Center
Fri 09:36:25 AM 42.7228 -107.2847 147° Southeast 431 496 31,000  Level Salt Lake Center
Fri 09:37:25 AM 42.6078 -107.1744 145° Southeast 447 514 31,000  Level Salt Lake Center
Fri 09:38:16 AM 42.5261 -107.0958 145° Southeast 451 519 31,000  Level Denver Center
Fri 09:39:16 AM 42.4264 -107.0011 145° Southeast 455 524 31,000  Level Denver Center
Fri 09:40:17 AM 42.3094 -106.8925 146° Southeast 456 525 31,000  Level Denver Center
Fri 09:41:18 AM 42.2108 -106.7989 145° Southeast 454 522 31,000  Level Denver Center
Fri 09:42:19 AM 42.1114 -106.7047 145° Southeast 454 522 31,000  Level Denver Center
Fri 09:43:20 AM 41.9950 -106.5981 146° Southeast 454 522 31,000  Level Denver Center
Fri 09:44:21 AM 41.8972 -106.5047 145° Southeast 450 518 31,000  Level Denver Center
Fri 09:45:22 AM 41.7983 -106.4161 146° Southeast 447 514 31,000  Level Denver Center
Fri 09:46:23 AM 41.6836 -106.3106 145° Southeast 449 517 31,000  Level Denver Center
Fri 09:47:24 AM 41.5836 -106.2194 146° Southeast 452 520 31,000  Level Denver Center
Fri 09:48:25 AM 41.4853 -106.1289 145° Southeast 451 519 31,000  Level Denver Center
Fri 09:49:26 AM 41.3697 -106.0233 146° Southeast 451 519 31,000  Level Denver Center
Fri 09:50:27 AM 41.2703 -105.9339 146° Southeast 451 519 31,000  Level Denver Center
Fri 09:51:28 AM 41.1550 -105.8289 146° Southeast 451 519 31,000  Level Denver Center
Fri 09:52:41 AM 41.0389 -105.7242 146° Southeast 452 520 31,000 -716 Level Denver Center
Fri 09:53:42 AM 40.9269 -105.6244 146° Southeast 460 529 29,400 -2,262 Descending Denver Center
Fri 09:54:43 AM 40.8189 -105.5267 146° Southeast 470 541 26,400 -2,829 Descending Denver Center
Fri 09:55:45 AM 40.7150 -105.4347 146° Southeast 454 522 23,600 -2,585 Descending Denver Center
Fri 09:56:46 AM 40.6175 -105.3472 146° Southeast 430 495 21,100 -2,361 Descending Denver Center
Fri 09:57:47 AM 40.5300 -105.2700 146° Southeast 387 445 18,800 -2,311 Descending Denver Center
Fri 09:58:48 AM 40.4700 -105.1558 125° Southeast 357 411 16,400 -1,770 Descending Denver Center
Fri 09:59:49 AM 40.4308 -105.0447 115° Southeast 340 391 15,200 -1,230 Descending Denver Center
Fri 10:00:50 AM 40.3794 -104.9497 125° Southeast 299 344 13,900 -1,426 Descending Denver Center
Fri 10:01:51 AM 40.3319 -104.8614 125° Southeast 297 342 12,300 -1,574 Descending Denver Center
Fri 10:02:52 AM 40.2756 -104.7889 136° Southeast 287 330 10,700 -1,377 Descending Denver Center
Fri 10:03:53 AM 40.2150 -104.7297 143° Southeast 275 316 9,500 -829 Descending Denver Center
Fri 10:04:55 AM 40.1517 -104.6831 151° Southeast 244 281 9,000 -484 Descending Denver Center

Login

Don't have an account? Register now (free) for customized features, flight alerts, and more!